KYNG/YNG METAR and TAF weather

Enter ICAO airport designator
Station Type Date Time Source
KYNG METAR 2021/09/27 06:51 UTC NOAA

KYNG 270651Z 22009KT 10SM BKN140 BKN250 15/08 A3000 RMK AO2 SLP154 T01500083


Station Type Date Time Source
KYNG Decoded METAR 2021/09/27 06:51 UTC NOAA

YOUNGSTOWN-WARREN REG AIRPRT, OH, United States (KYNG) 41-15N 080-40W 360M
Sep 27, 2021 - 02:51 AM EDT / 2021.09.27 0651 UTC
Wind: from the SW (220 degrees) at 10 MPH (9 KT):0
Visibility: 10 mile(s):0
Sky conditions: mostly cloudy
Temperature: 59.0 F (15.0 C)
Dew Point: 46.9 F (8.3 C)
Relative Humidity: 64%
Pressure (altimeter): 30 in. Hg (1015 hPa)
ob: KYNG 270651Z 22009KT 10SM BKN140 BKN250 15/08 A3000 RMK AO2 SLP154 T01500083
cycle: 7

Station Type Date Time Source
KYNG TAF 2021/09/27 06:40 UTC NOAA

TAF KYNG 270538Z 2706/2806 22010KT P6SM SCT100 BKN200
FM271400 21012G20KT P6SM SCT200
FM272300 23008KT P6SM SCT250

Example: see airport list